sensor_id;sensor_type;location;lat;lon;timestamp;temperature;humidity
69225;DHT22;56333;51.306;17.056;2024-03-23T00:54:36;10.55;79.43
69225;DHT22;56333;51.306;17.056;2024-03-23T00:56:03;10.57;79.40
69225;DHT22;56333;51.306;17.056;2024-03-23T00:57:31;10.58;79.35
69225;DHT22;56333;51.306;17.056;2024-03-23T00:58:58;10.59;79.35
69225;DHT22;56333;51.306;17.056;2024-03-23T01:00:25;10.58;79.32
69225;DHT22;56333;51.306;17.056;2024-03-23T01:01:53;10.59;79.20
69225;DHT22;56333;51.306;17.056;2024-03-23T01:03:21;10.59;79.35
69225;DHT22;56333;51.306;17.056;2024-03-23T01:04:49;10.59;79.10
69225;DHT22;56333;51.306;17.056;2024-03-23T01:06:16;10.60;79.03
69225;DHT22;56333;51.306;17.056;2024-03-23T01:07:44;10.60;79.30
69225;DHT22;56333;51.306;17.056;2024-03-23T01:09:11;10.61;79.03
69225;DHT22;56333;51.306;17.056;2024-03-23T01:10:38;10.62;79.03
69225;DHT22;56333;51.306;17.056;2024-03-23T01:12:06;10.61;78.95
69225;DHT22;56333;51.306;17.056;2024-03-23T01:13:34;10.61;79.07
69225;DHT22;56333;51.306;17.056;2024-03-23T01:15:01;10.60;79.13
69225;DHT22;56333;51.306;17.056;2024-03-23T01:16:29;10.60;79.03
69225;DHT22;56333;51.306;17.056;2024-03-23T01:17:56;10.61;79.00
69225;DHT22;56333;51.306;17.056;2024-03-23T01:19:23;10.60;78.90
69225;DHT22;56333;51.306;17.056;2024-03-23T01:20:51;10.59;79.03
69225;DHT22;56333;51.306;17.056;2024-03-23T01:22:18;10.59;79.00
69225;DHT22;56333;51.306;17.056;2024-03-23T01:23:45;10.58;78.95
69225;DHT22;56333;51.306;17.056;2024-03-23T01:25:12;10.57;78.97
69225;DHT22;56333;51.306;17.056;2024-03-23T01:26:40;10.56;78.85
69225;DHT22;56333;51.306;17.056;2024-03-23T01:28:07;10.57;78.90
69225;DHT22;56333;51.306;17.056;2024-03-23T01:29:34;10.59;78.88
69225;DHT22;56333;51.306;17.056;2024-03-23T01:31:02;10.59;78.82
69225;DHT22;56333;51.306;17.056;2024-03-23T01:32:29;10.59;78.85
69225;DHT22;56333;51.306;17.056;2024-03-23T01:33:57;10.60;78.78
69225;DHT22;56333;51.306;17.056;2024-03-23T01:35:24;10.61;78.80
69225;DHT22;56333;51.306;17.056;2024-03-23T01:36:52;10.60;78.75
69225;DHT22;56333;51.306;17.056;2024-03-23T01:38:19;10.60;78.88
69225;DHT22;56333;51.306;17.056;2024-03-23T01:39:46;10.60;78.75
69225;DHT22;56333;51.306;17.056;2024-03-23T01:41:14;10.59;78.75
69225;DHT22;56333;51.306;17.056;2024-03-23T01:42:42;10.57;78.68
69225;DHT22;56333;51.306;17.056;2024-03-23T01:44:20;10.56;78.70
69225;DHT22;56333;51.306;17.056;2024-03-23T01:45:48;10.59;78.63
69225;DHT22;56333;51.306;17.056;2024-03-23T01:47:16;10.59;78.60
69225;DHT22;56333;51.306;17.056;2024-03-23T01:48:43;10.61;78.60
69225;DHT22;56333;51.306;17.056;2024-03-23T01:50:12;10.64;78.57
69225;DHT22;56333;51.306;17.056;2024-03-23T01:51:40;10.66;78.55
69225;DHT22;56333;51.306;17.056;2024-03-23T01:53:08;10.68;78.53
69225;DHT22;56333;51.306;17.056;2024-03-23T01:54:36;10.69;78.50
69225;DHT22;56333;51.306;17.056;2024-03-23T01:56:04;10.70;78.55
69225;DHT22;56333;51.306;17.056;2024-03-23T01:57:32;10.73;78.53
69225;DHT22;56333;51.306;17.056;2024-03-23T01:59:01;10.74;78.40
69225;DHT22;56333;51.306;17.056;2024-03-23T02:00:29;10.70;78.38
69225;DHT22;56333;51.306;17.056;2024-03-23T02:01:57;10.69;78.40
69225;DHT22;56333;51.306;17.056;2024-03-23T02:03:26;10.68;78.40
69225;DHT22;56333;51.306;17.056;2024-03-23T02:04:53;10.61;78.53
69225;DHT22;56333;51.306;17.056;2024-03-23T02:06:22;10.61;78.57
69225;DHT22;56333;51.306;17.056;2024-03-23T02:07:49;10.57;78.70
69225;DHT22;56333;51.306;17.056;2024-03-23T02:09:18;10.55;78.65
69225;DHT22;56333;51.306;17.056;2024-03-23T02:10:45;10.55;78.75
69225;DHT22;56333;51.306;17.056;2024-03-23T02:12:12;10.55;78.70
69225;DHT22;56333;51.306;17.056;2024-03-23T02:13:39;10.53;78.97
69225;DHT22;56333;51.306;17.056;2024-03-23T02:15:07;10.52;78.80
69225;DHT22;56333;51.306;17.056;2024-03-23T02:16:34;10.54;78.80
69225;DHT22;56333;51.306;17.056;2024-03-23T02:18:03;10.55;78.80
69225;DHT22;56333;51.306;17.056;2024-03-23T02:19:31;10.54;78.78
69225;DHT22;56333;51.306;17.056;2024-03-23T02:20:58;10.53;78.82
69225;DHT22;56333;51.306;17.056;2024-03-23T02:22:26;10.53;78.78
69225;DHT22;56333;51.306;17.056;2024-03-23T02:24:03;10.52;78.78
69225;DHT22;56333;51.306;17.056;2024-03-23T02:25:31;10.51;78.75
69225;DHT22;56333;51.306;17.056;2024-03-23T02:26:58;10.52;78.68
69225;DHT22;56333;51.306;17.056;2024-03-23T02:28:26;10.52;78.60
69225;DHT22;56333;51.306;17.056;2024-03-23T02:29:54;10.52;78.63
69225;DHT22;56333;51.306;17.056;2024-03-23T02:31:21;10.55;78.70
69225;DHT22;56333;51.306;17.056;2024-03-23T02:32:48;10.55;78.53
69225;DHT22;56333;51.306;17.056;2024-03-23T02:34:15;10.56;78.55
69225;DHT22;56333;51.306;17.056;2024-03-23T02:35:43;10.55;78.47
69225;DHT22;56333;51.306;17.056;2024-03-23T02:37:12;10.54;78.60
69225;DHT22;56333;51.306;17.056;2024-03-23T02:38:40;10.52;78.53
69225;DHT22;56333;51.306;17.056;2024-03-23T02:40:09;10.52;78.57
69225;DHT22;56333;51.306;17.056;2024-03-23T02:41:36;10.52;78.53
69225;DHT22;56333;51.306;17.056;2024-03-23T02:43:04;10.48;78.78
69225;DHT22;56333;51.306;17.056;2024-03-23T02:44:31;10.49;78.60
69225;DHT22;56333;51.306;17.056;2024-03-23T02:45:59;10.47;78.65
69225;DHT22;56333;51.306;17.056;2024-03-23T02:47:27;10.45;78.60
69225;DHT22;56333;51.306;17.056;2024-03-23T02:48:55;10.44;78.53
69225;DHT22;56333;51.306;17.056;2024-03-23T02:50:24;10.43;78.53
69225;DHT22;56333;51.306;17.056;2024-03-23T02:51:51;10.41;78.65
69225;DHT22;56333;51.306;17.056;2024-03-23T02:53:19;10.42;78.57
69225;DHT22;56333;51.306;17.056;2024-03-23T02:54:46;10.40;78.57
69225;DHT22;56333;51.306;17.056;2024-03-23T02:56:14;10.40;78.57
69225;DHT22;56333;51.306;17.056;2024-03-23T02:57:41;10.40;78.50
69225;DHT22;56333;51.306;17.056;2024-03-23T02:59:08;10.39;78.55
69225;DHT22;56333;51.306;17.056;2024-03-23T03:00:36;10.39;78.50
69225;DHT22;56333;51.306;17.056;2024-03-23T03:02:05;10.39;78.53
69225;DHT22;56333;51.306;17.056;2024-03-23T03:03:32;10.39;78.57
69225;DHT22;56333;51.306;17.056;2024-03-23T03:05:00;10.38;78.57
69225;DHT22;56333;51.306;17.056;2024-03-23T03:06:29;10.39;78.40
69225;DHT22;56333;51.306;17.056;2024-03-23T03:07:57;10.39;78.50
69225;DHT22;56333;51.306;17.056;2024-03-23T03:09:24;10.38;78.47
69225;DHT22;56333;51.306;17.056;2024-03-23T03:10:52;10.37;78.55
69225;DHT22;56333;51.306;17.056;2024-03-23T03:12:19;10.38;78.53
69225;DHT22;56333;51.306;17.056;2024-03-23T03:13:47;10.35;78.50
69225;DHT22;56333;51.306;17.056;2024-03-23T03:15:14;10.36;78.63
69225;DHT22;56333;51.306;17.056;2024-03-23T03:16:42;10.34;78.65
69225;DHT22;56333;51.306;17.056;2024-03-23T03:18:09;10.34;78.63
69225;DHT22;56333;51.306;17.056;2024-03-23T03:19:37;10.32;78.70
69225;DHT22;56333;51.306;17.056;2024-03-23T03:21:05;10.33;78.55
69225;DHT22;56333;51.306;17.056;2024-03-23T03:22:34;10.34;78.57
69225;DHT22;56333;51.306;17.056;2024-03-23T03:24:01;10.34;78.65
69225;DHT22;56333;51.306;17.056;2024-03-23T03:25:30;10.34;78.68
69225;DHT22;56333;51.306;17.056;2024-03-23T03:26:58;10.35;78.57
69225;DHT22;56333;51.306;17.056;2024-03-23T03:28:27;10.36;78.53
69225;DHT22;56333;51.306;17.056;2024-03-23T03:29:56;10.40;78.50
69225;DHT22;56333;51.306;17.056;2024-03-23T03:31:24;10.44;78.57
69225;DHT22;56333;51.306;17.056;2024-03-23T03:32:53;10.45;78.53
69225;DHT22;56333;51.306;17.056;2024-03-23T03:34:20;10.48;78.40
69225;DHT22;56333;51.306;17.056;2024-03-23T03:35:48;10.49;78.40
69225;DHT22;56333;51.306;17.056;2024-03-23T03:37:15;10.49;78.28
69225;DHT22;56333;51.306;17.056;2024-03-23T03:38:42;10.51;78.18
69225;DHT22;56333;51.306;17.056;2024-03-23T03:40:12;10.52;78.13
69225;DHT22;56333;51.306;17.056;2024-03-23T03:41:39;10.52;78.10
69225;DHT22;56333;51.306;17.056;2024-03-23T03:43:06;10.52;78.15
69225;DHT22;56333;51.306;17.056;2024-03-23T03:44:34;10.55;78.10
69225;DHT22;56333;51.306;17.056;2024-03-23T03:46:03;10.55;78.00
69225;DHT22;56333;51.306;17.056;2024-03-23T03:47:32;10.56;77.97
69225;DHT22;56333;51.306;17.056;2024-03-23T03:48:59;10.54;77.95
69225;DHT22;56333;51.306;17.056;2024-03-23T03:50:26;10.53;77.90
69225;DHT22;56333;51.306;17.056;2024-03-23T03:51:54;10.52;77.82
69225;DHT22;56333;51.306;17.056;2024-03-23T03:53:21;10.51;77.80
69225;DHT22;56333;51.306;17.056;2024-03-23T03:54:48;10.48;77.80
69225;DHT22;56333;51.306;17.056;2024-03-23T03:56:15;10.47;77.82
69225;DHT22;56333;51.306;17.056;2024-03-23T03:57:43;10.45;77.90
69225;DHT22;56333;51.306;17.056;2024-03-23T03:59:11;10.45;77.82
69225;DHT22;56333;51.306;17.056;2024-03-23T04:00:39;10.43;77.90
69225;DHT22;56333;51.306;17.056;2024-03-23T04:02:06;10.43;77.88
69225;DHT22;56333;51.306;17.056;2024-03-23T04:03:34;10.43;77.85
69225;DHT22;56333;51.306;17.056;2024-03-23T04:05:03;10.44;77.82
69225;DHT22;56333;51.306;17.056;2024-03-23T04:06:32;10.43;77.80
69225;DHT22;56333;51.306;17.056;2024-03-23T04:08:00;10.41;77.88
69225;DHT22;56333;51.306;17.056;2024-03-23T04:09:27;10.38;77.88
69225;DHT22;56333;51.306;17.056;2024-03-23T04:10:55;10.36;77.88
69225;DHT22;56333;51.306;17.056;2024-03-23T04:12:23;10.36;77.80
69225;DHT22;56333;51.306;17.056;2024-03-23T04:13:51;10.36;77.80
69225;DHT22;56333;51.306;17.056;2024-03-23T04:15:18;10.38;77.85
69225;DHT22;56333;51.306;17.056;2024-03-23T04:16:46;10.40;77.80
69225;DHT22;56333;51.306;17.056;2024-03-23T04:18:14;10.39;77.78
69225;DHT22;56333;51.306;17.056;2024-03-23T04:19:43;10.39;77.68
69225;DHT22;56333;51.306;17.056;2024-03-23T04:21:12;10.39;77.70
69225;DHT22;56333;51.306;17.056;2024-03-23T04:22:40;10.37;77.57
69225;DHT22;56333;51.306;17.056;2024-03-23T04:24:08;10.35;77.60
69225;DHT22;56333;51.306;17.056;2024-03-23T04:25:35;10.33;77.68
69225;DHT22;56333;51.306;17.056;2024-03-23T04:27:03;10.31;77.60
69225;DHT22;56333;51.306;17.056;2024-03-23T04:28:31;10.30;77.70
69225;DHT22;56333;51.306;17.056;2024-03-23T04:29:58;10.30;77.70
69225;DHT22;56333;51.306;17.056;2024-03-23T04:31:27;10.31;77.75
69225;DHT22;56333;51.306;17.056;2024-03-23T04:32:55;10.31;77.70
69225;DHT22;56333;51.306;17.056;2024-03-23T04:34:24;10.29;77.70
69225;DHT22;56333;51.306;17.056;2024-03-23T04:35:52;10.30;77.70
69225;DHT22;56333;51.306;17.056;2024-03-23T04:37:19;10.31;77.70
69225;DHT22;56333;51.306;17.056;2024-03-23T04:38:48;10.32;77.68
69225;DHT22;56333;51.306;17.056;2024-03-23T04:40:16;10.32;77.60
69225;DHT22;56333;51.306;17.056;2024-03-23T04:41:43;10.34;77.55
69225;DHT22;56333;51.306;17.056;2024-03-23T04:43:10;10.31;77.50
69225;DHT22;56333;51.306;17.056;2024-03-23T04:44:37;10.34;77.50
69225;DHT22;56333;51.306;17.056;2024-03-23T04:46:05;10.35;77.45
69225;DHT22;56333;51.306;17.056;2024-03-23T04:47:32;10.36;77.47
69225;DHT22;56333;51.306;17.056;2024-03-23T04:49:00;10.37;77.40
69225;DHT22;56333;51.306;17.056;2024-03-23T04:50:28;10.38;77.40
69225;DHT22;56333;51.306;17.056;2024-03-23T04:51:55;10.41;77.38
69225;DHT22;56333;51.306;17.056;2024-03-23T04:53:23;10.43;77.30
69225;DHT22;56333;51.306;17.056;2024-03-23T04:54:52;10.44;77.22
69225;DHT22;56333;51.306;17.056;2024-03-23T04:56:20;10.47;77.10
69225;DHT22;56333;51.306;17.056;2024-03-23T04:57:48;10.46;77.10
69225;DHT22;56333;51.306;17.056;2024-03-23T04:59:16;10.49;77.13
69225;DHT22;56333;51.306;17.056;2024-03-23T05:00:43;10.51;77.07
69225;DHT22;56333;51.306;17.056;2024-03-23T05:02:10;10.55;77.07
69225;DHT22;56333;51.306;17.056;2024-03-23T05:03:39;10.59;77.03
69225;DHT22;56333;51.306;17.056;2024-03-23T05:05:07;10.60;76.85
69225;DHT22;56333;51.306;17.056;2024-03-23T05:06:35;10.58;76.53
69225;DHT22;56333;51.306;17.056;2024-03-23T05:08:02;10.58;76.60
69225;DHT22;56333;51.306;17.056;2024-03-23T05:09:31;10.59;76.47
69225;DHT22;56333;51.306;17.056;2024-03-23T05:10:58;10.57;76.40
69225;DHT22;56333;51.306;17.056;2024-03-23T05:12:29;10.57;76.55
69225;DHT22;56333;51.306;17.056;2024-03-23T05:13:57;10.57;76.55
69225;DHT22;56333;51.306;17.056;2024-03-23T05:15:26;10.58;76.60
69225;DHT22;56333;51.306;17.056;2024-03-23T05:16:54;10.58;76.53
69225;DHT22;56333;51.306;17.056;2024-03-23T05:18:21;10.57;76.45
69225;DHT22;56333;51.306;17.056;2024-03-23T05:19:50;10.54;76.50
69225;DHT22;56333;51.306;17.056;2024-03-23T05:21:17;10.52;76.60
69225;DHT22;56333;51.306;17.056;2024-03-23T05:22:44;10.55;76.65
69225;DHT22;56333;51.306;17.056;2024-03-23T05:24:12;10.55;76.72
69225;DHT22;56333;51.306;17.056;2024-03-23T05:25:40;10.57;76.70
69225;DHT22;56333;51.306;17.056;2024-03-23T05:27:07;10.60;76.72
69225;DHT22;56333;51.306;17.056;2024-03-23T05:28:34;10.61;76.60
69225;DHT22;56333;51.306;17.056;2024-03-23T05:30:01;10.58;76.53
69225;DHT22;56333;51.306;17.056;2024-03-23T05:31:31;10.54;76.60
69225;DHT22;56333;51.306;17.056;2024-03-23T05:32:59;10.52;76.60
69225;DHT22;56333;51.306;17.056;2024-03-23T05:34:27;10.49;76.60
69225;DHT22;56333;51.306;17.056;2024-03-23T05:35:58;10.48;76.65
69225;DHT22;56333;51.306;17.056;2024-03-23T05:37:27;10.45;76.70
69225;DHT22;56333;51.306;17.056;2024-03-23T05:38:57;10.45;76.75
69225;DHT22;56333;51.306;17.056;2024-03-23T05:40:25;10.45;76.80
69225;DHT22;56333;51.306;17.056;2024-03-23T05:41:53;10.48;76.85
69225;DHT22;56333;51.306;17.056;2024-03-23T05:43:20;10.48;76.90
69225;DHT22;56333;51.306;17.056;2024-03-23T05:44:47;10.50;76.90
69225;DHT22;56333;51.306;17.056;2024-03-23T05:46:15;10.49;76.88
69225;DHT22;56333;51.306;17.056;2024-03-23T05:47:42;10.51;76.88
69225;DHT22;56333;51.306;17.056;2024-03-23T05:49:10;10.52;76.80
69225;DHT22;56333;51.306;17.056;2024-03-23T05:50:37;10.53;76.88
69225;DHT22;56333;51.306;17.056;2024-03-23T05:52:06;10.52;76.80
69225;DHT22;56333;51.306;17.056;2024-03-23T05:53:33;10.54;76.80
69225;DHT22;56333;51.306;17.056;2024-03-23T05:55:01;10.51;76.85
69225;DHT22;56333;51.306;17.056;2024-03-23T05:56:29;10.51;76.90
69225;DHT22;56333;51.306;17.056;2024-03-23T05:57:56;10.52;76.90
69225;DHT22;56333;51.306;17.056;2024-03-23T05:59:24;10.55;77.05
69225;DHT22;56333;51.306;17.056;2024-03-23T06:00:58;10.59;76.97
69225;DHT22;56333;51.306;17.056;2024-03-23T06:02:28;10.61;76.90
69225;DHT22;56333;51.306;17.056;2024-03-23T06:03:56;10.65;76.78
69225;DHT22;56333;51.306;17.056;2024-03-23T06:05:25;10.67;76.70
69225;DHT22;56333;51.306;17.056;2024-03-23T06:06:53;10.69;76.72
69225;DHT22;56333;51.306;17.056;2024-03-23T06:08:21;10.71;76.63
69225;DHT22;56333;51.306;17.056;2024-03-23T06:09:49;10.73;76.72
69225;DHT22;56333;51.306;17.056;2024-03-23T06:11:17;10.75;76.60
69225;DHT22;56333;51.306;17.056;2024-03-23T06:12:45;10.77;76.60
69225;DHT22;56333;51.306;17.056;2024-03-23T06:14:15;10.77;76.50
69225;DHT22;56333;51.306;17.056;2024-03-23T06:15:43;10.74;76.40
69225;DHT22;56333;51.306;17.056;2024-03-23T06:17:12;10.69;76.35
69225;DHT22;56333;51.306;17.056;2024-03-23T06:18:41;10.65;76.40
69225;DHT22;56333;51.306;17.056;2024-03-23T06:20:10;10.62;76.47
69225;DHT22;56333;51.306;17.056;2024-03-23T06:21:41;10.58;76.55
69225;DHT22;56333;51.306;17.056;2024-03-23T06:23:10;10.53;76.70
69225;DHT22;56333;51.306;17.056;2024-03-23T06:24:38;10.52;76.70
69225;DHT22;56333;51.306;17.056;2024-03-23T06:26:06;10.51;76.78
69225;DHT22;56333;51.306;17.056;2024-03-23T06:27:34;10.51;76.78
69225;DHT22;56333;51.306;17.056;2024-03-23T06:29:02;10.49;76.88
69225;DHT22;56333;51.306;17.056;2024-03-23T06:30:30;10.48;76.82
69225;DHT22;56333;51.306;17.056;2024-03-23T06:31:57;10.48;76.80
69225;DHT22;56333;51.306;17.056;2024-03-23T06:33:25;10.49;76.90
69225;DHT22;56333;51.306;17.056;2024-03-23T06:34:52;10.48;76.93
69225;DHT22;56333;51.306;17.056;2024-03-23T06:36:20;10.51;76.90
69225;DHT22;56333;51.306;17.056;2024-03-23T06:37:48;10.53;76.93
69225;DHT22;56333;51.306;17.056;2024-03-23T06:39:16;10.55;76.97
69225;DHT22;56333;51.306;17.056;2024-03-23T06:40:43;10.56;76.90
69225;DHT22;56333;51.306;17.056;2024-03-23T06:42:14;10.58;77.00
69225;DHT22;56333;51.306;17.056;2024-03-23T06:43:43;10.59;76.90
69225;DHT22;56333;51.306;17.056;2024-03-23T06:45:10;10.60;76.80
69225;DHT22;56333;51.306;17.056;2024-03-23T06:46:39;10.61;76.80
69225;DHT22;56333;51.306;17.056;2024-03-23T06:48:07;10.64;76.70
69225;DHT22;56333;51.306;17.056;2024-03-23T06:49:35;10.65;76.70
69225;DHT22;56333;51.306;17.056;2024-03-23T06:51:02;10.69;76.60
69225;DHT22;56333;51.306;17.056;2024-03-23T06:52:31;10.73;76.60
69225;DHT22;56333;51.306;17.056;2024-03-23T06:53:58;10.75;76.60
69225;DHT22;56333;51.306;17.056;2024-03-23T06:55:27;10.77;76.43
69225;DHT22;56333;51.306;17.056;2024-03-23T06:56:54;10.81;76.35
69225;DHT22;56333;51.306;17.056;2024-03-23T06:58:22;10.84;76.30
69225;DHT22;56333;51.306;17.056;2024-03-23T06:59:49;10.87;76.30
69225;DHT22;56333;51.306;17.056;2024-03-23T07:01:16;10.90;76.15
69225;DHT22;56333;51.306;17.056;2024-03-23T07:02:44;10.93;76.07
69225;DHT22;56333;51.306;17.056;2024-03-23T07:04:12;10.95;75.97
69225;DHT22;56333;51.306;17.056;2024-03-23T07:05:39;10.99;75.90
69225;DHT22;56333;51.306;17.056;2024-03-23T07:07:08;11.01;75.70
69225;DHT22;56333;51.306;17.056;2024-03-23T07:08:35;11.02;75.57
69225;DHT22;56333;51.306;17.056;2024-03-23T07:10:02;11.02;75.47
69225;DHT22;56333;51.306;17.056;2024-03-23T07:11:31;11.06;75.35
69225;DHT22;56333;51.306;17.056;2024-03-23T07:12:59;11.06;75.30
69225;DHT22;56333;51.306;17.056;2024-03-23T07:14:26;11.10;75.40
69225;DHT22;56333;51.306;17.056;2024-03-23T07:15:55;11.11;75.40
69225;DHT22;56333;51.306;17.056;2024-03-23T07:17:23;11.13;75.22
69225;DHT22;56333;51.306;17.056;2024-03-23T07:18:52;11.13;75.05
69225;DHT22;56333;51.306;17.056;2024-03-23T07:20:19;11.15;75.00
69225;DHT22;56333;51.306;17.056;2024-03-23T07:21:47;11.17;74.85
69225;DHT22;56333;51.306;17.056;2024-03-23T07:23:14;11.19;74.82
69225;DHT22;56333;51.306;17.056;2024-03-23T07:24:42;11.20;74.55
69225;DHT22;56333;51.306;17.056;2024-03-23T07:26:09;11.20;74.30
69225;DHT22;56333;51.306;17.056;2024-03-23T07:27:37;11.22;74.22
69225;DHT22;56333;51.306;17.056;2024-03-23T07:29:05;11.24;74.03
69225;DHT22;56333;51.306;17.056;2024-03-23T07:30:32;11.24;73.97
69225;DHT22;56333;51.306;17.056;2024-03-23T07:31:59;11.24;73.85
69225;DHT22;56333;51.306;17.056;2024-03-23T07:33:27;11.31;73.75
69225;DHT22;56333;51.306;17.056;2024-03-23T07:34:54;11.31;73.53
69225;DHT22;56333;51.306;17.056;2024-03-23T07:36:21;11.34;73.45
69225;DHT22;56333;51.306;17.056;2024-03-23T07:37:49;11.37;73.50
69225;DHT22;56333;51.306;17.056;2024-03-23T07:39:17;11.39;73.40
69225;DHT22;56333;51.306;17.056;2024-03-23T07:40:44;11.39;73.57
69225;DHT22;56333;51.306;17.056;2024-03-23T07:42:13;11.44;73.55
69225;DHT22;56333;51.306;17.056;2024-03-23T07:43:40;11.49;73.70
69225;DHT22;56333;51.306;17.056;2024-03-23T07:45:09;11.54;73.75
69225;DHT22;56333;51.306;17.056;2024-03-23T07:46:37;11.60;73.68
69225;DHT22;56333;51.306;17.056;2024-03-23T07:48:05;11.65;73.22
69225;DHT22;56333;51.306;17.056;2024-03-23T07:49:33;11.69;73.00
69225;DHT22;56333;51.306;17.056;2024-03-23T07:51:02;11.73;72.95
69225;DHT22;56333;51.306;17.056;2024-03-23T07:52:31;11.77;72.88
69225;DHT22;56333;51.306;17.056;2024-03-23T07:53:58;11.82;72.85
69225;DHT22;56333;51.306;17.056;2024-03-23T07:55:25;11.89;72.13
69225;DHT22;56333;51.306;17.056;2024-03-23T07:56:52;11.94;71.82
69225;DHT22;56333;51.306;17.056;2024-03-23T07:58:19;11.99;71.85
69225;DHT22;56333;51.306;17.056;2024-03-23T07:59:47;12.05;72.03
69225;DHT22;56333;51.306;17.056;2024-03-23T08:01:16;12.12;72.18
69225;DHT22;56333;51.306;17.056;2024-03-23T08:02:44;12.18;71.97
69225;DHT22;56333;51.306;17.056;2024-03-23T08:04:11;12.21;71.57
69225;DHT22;56333;51.306;17.056;2024-03-23T08:05:39;12.28;71.47
69225;DHT22;56333;51.306;17.056;2024-03-23T08:07:07;12.32;71.13
69225;DHT22;56333;51.306;17.056;2024-03-23T08:08:34;12.38;71.25
69225;DHT22;56333;51.306;17.056;2024-03-23T08:10:04;12.42;71.22
69225;DHT22;56333;51.306;17.056;2024-03-23T08:11:33;12.47;71.40
69225;DHT22;56333;51.306;17.056;2024-03-23T08:13:02;12.53;71.47
69225;DHT22;56333;51.306;17.056;2024-03-23T08:14:29;12.58;71.35
69225;DHT22;56333;51.306;17.056;2024-03-23T08:15:58;12.63;70.85
69225;DHT22;56333;51.306;17.056;2024-03-23T08:17:28;12.66;70.97
69225;DHT22;56333;51.306;17.056;2024-03-23T08:18:54;12.65;70.82
69225;DHT22;56333;51.306;17.056;2024-03-23T08:20:21;12.67;70.47
69225;DHT22;56333;51.306;17.056;2024-03-23T08:21:48;12.69;70.47
69225;DHT22;56333;51.306;17.056;2024-03-23T08:23:18;12.71;70.70
69225;DHT22;56333;51.306;17.056;2024-03-23T08:24:45;12.73;70.38
69225;DHT22;56333;51.306;17.056;2024-03-23T08:26:15;12.78;70.45
69225;DHT22;56333;51.306;17.056;2024-03-23T08:27:44;12.82;70.45
69225;DHT22;56333;51.306;17.056;2024-03-23T08:29:12;12.89;69.90
69225;DHT22;56333;51.306;17.056;2024-03-23T08:30:39;12.92;69.75
69225;DHT22;56333;51.306;17.056;2024-03-23T08:32:07;12.98;69.78
69225;DHT22;56333;51.306;17.056;2024-03-23T08:33:36;13.01;69.80
69225;DHT22;56333;51.306;17.056;2024-03-23T08:35:05;13.06;69.93
69225;DHT22;56333;51.306;17.056;2024-03-23T08:36:34;13.11;69.88
69225;DHT22;56333;51.306;17.056;2024-03-23T08:38:02;13.18;69.60
69225;DHT22;56333;51.306;17.056;2024-03-23T08:39:29;13.22;69.03
69225;DHT22;56333;51.306;17.056;2024-03-23T08:41:00;13.27;68.53
69225;DHT22;56333;51.306;17.056;2024-03-23T08:42:29;13.30;68.78
69225;DHT22;56333;51.306;17.056;2024-03-23T08:43:56;13.35;69.07
69225;DHT22;56333;51.306;17.056;2024-03-23T08:45:25;13.40;68.85
69225;DHT22;56333;51.306;17.056;2024-03-23T08:46:52;13.43;68.18
69225;DHT22;56333;51.306;17.056;2024-03-23T08:48:22;13.45;67.35
69225;DHT22;56333;51.306;17.056;2024-03-23T08:49:49;13.47;67.70
69225;DHT22;56333;51.306;17.056;2024-03-23T08:51:17;13.50;67.57
69225;DHT22;56333;51.306;17.056;2024-03-23T08:52:45;13.54;66.90
69225;DHT22;56333;51.306;17.056;2024-03-23T08:54:13;13.57;66.65
69225;DHT22;56333;51.306;17.056;2024-03-23T08:55:40;13.59;66.80
69225;DHT22;56333;51.306;17.056;2024-03-23T08:57:08;13.65;66.60
69225;DHT22;56333;51.306;17.056;2024-03-23T08:58:36;13.70;66.78
69225;DHT22;56333;51.306;17.056;2024-03-23T09:00:05;13.77;66.90
69225;DHT22;56333;51.306;17.056;2024-03-23T09:01:35;13.85;67.15
69225;DHT22;56333;51.306;17.056;2024-03-23T09:03:02;13.92;66.53
69225;DHT22;56333;51.306;17.056;2024-03-23T09:04:30;14.01;66.25
69225;DHT22;56333;51.306;17.056;2024-03-23T09:05:58;14.09;66.25
69225;DHT22;56333;51.306;17.056;2024-03-23T09:07:27;14.16;66.22
69225;DHT22;56333;51.306;17.056;2024-03-23T09:08:54;14.19;65.50
69225;DHT22;56333;51.306;17.056;2024-03-23T09:10:21;14.23;64.72
69225;DHT22;56333;51.306;17.056;2024-03-23T09:11:49;14.28;64.60
69225;DHT22;56333;51.306;17.056;2024-03-23T09:13:16;14.27;64.65
69225;DHT22;56333;51.306;17.056;2024-03-23T09:14:43;14.29;64.45
69225;DHT22;56333;51.306;17.056;2024-03-23T09:16:10;14.30;64.38
69225;DHT22;56333;51.306;17.056;2024-03-23T09:17:37;14.29;64.82
69225;DHT22;56333;51.306;17.056;2024-03-23T09:19:05;14.30;64.88
69225;DHT22;56333;51.306;17.056;2024-03-23T09:20:34;14.35;65.13
69225;DHT22;56333;51.306;17.056;2024-03-23T09:22:02;14.37;64.93
69225;DHT22;56333;51.306;17.056;2024-03-23T09:23:29;14.41;65.32
69225;DHT22;56333;51.306;17.056;2024-03-23T09:24:56;14.46;65.10
69225;DHT22;56333;51.306;17.056;2024-03-23T09:26:23;14.47;64.93
69225;DHT22;56333;51.306;17.056;2024-03-23T09:27:53;14.47;64.38
69225;DHT22;56333;51.306;17.056;2024-03-23T09:29:20;14.48;64.47
69225;DHT22;56333;51.306;17.056;2024-03-23T09:30:48;14.49;64.72
69225;DHT22;56333;51.306;17.056;2024-03-23T09:32:16;14.52;64.88
69225;DHT22;56333;51.306;17.056;2024-03-23T09:33:43;14.52;64.57
69225;DHT22;56333;51.306;17.056;2024-03-23T09:35:10;14.53;64.88
69225;DHT22;56333;51.306;17.056;2024-03-23T09:36:37;14.56;64.90
69225;DHT22;56333;51.306;17.056;2024-03-23T09:38:05;14.58;64.95
69225;DHT22;56333;51.306;17.056;2024-03-23T09:39:33;14.60;65.18
69225;DHT22;56333;51.306;17.056;2024-03-23T09:41:00;14.62;65.30
69225;DHT22;56333;51.306;17.056;2024-03-23T09:42:33;14.64;65.32
69225;DHT22;56333;51.306;17.056;2024-03-23T09:44:00;14.68;65.22
69225;DHT22;56333;51.306;17.056;2024-03-23T09:45:29;14.69;65.38
69225;DHT22;56333;51.306;17.056;2024-03-23T09:46:59;14.73;64.85
69225;DHT22;56333;51.306;17.056;2024-03-23T09:48:25;14.70;64.97
69225;DHT22;56333;51.306;17.056;2024-03-23T09:49:52;14.72;64.47
69225;DHT22;56333;51.306;17.056;2024-03-23T09:51:20;14.72;64.90
69225;DHT22;56333;51.306;17.056;2024-03-23T09:52:48;14.76;65.10
69225;DHT22;56333;51.306;17.056;2024-03-23T09:54:17;14.76;64.88
69225;DHT22;56333;51.306;17.056;2024-03-23T09:55:45;14.77;64.07
69225;DHT22;56333;51.306;17.056;2024-03-23T09:57:12;14.76;63.95
69225;DHT22;56333;51.306;17.056;2024-03-23T09:58:40;14.76;63.75
69225;DHT22;56333;51.306;17.056;2024-03-23T10:00:09;14.76;63.58